createdAt,value
2019-02-18T00:05:02.101Z,22.10
2019-02-18T00:10:07.068Z,22.10
2019-02-18T00:15:10.561Z,22.10
2019-02-18T00:20:13.852Z,22.10
2019-02-18T00:25:18.648Z,22.10
2019-02-18T00:30:22.211Z,22.00
2019-02-18T00:35:27.261Z,22.10
2019-02-18T00:40:30.673Z,22.00
2019-02-18T00:45:33.971Z,22.00
2019-02-18T00:50:37.803Z,22.00
2019-02-18T00:55:41.452Z,22.00
2019-02-18T01:00:44.765Z,22.00
2019-02-18T01:05:48.672Z,22.00
2019-02-18T01:10:51.964Z,22.00
2019-02-18T01:15:56.951Z,22.00
2019-02-18T01:21:00.240Z,22.00
2019-02-18T01:26:04.698Z,22.00
2019-02-18T01:31:08.868Z,22.00
2019-02-18T01:36:14.696Z,22.00
2019-02-18T01:41:18.134Z,22.00
2019-02-18T01:46:21.549Z,22.00
2019-02-18T01:51:24.909Z,22.00
2019-02-18T01:56:29.671Z,22.00
2019-02-18T02:01:32.968Z,22.00
2019-02-18T02:06:36.303Z,22.00
2019-02-18T02:11:39.718Z,21.90
2019-02-18T02:16:43.145Z,21.90
2019-02-18T02:21:46.639Z,21.90
2019-02-18T02:26:50.852Z,21.90
2019-02-18T02:31:55.982Z,21.90
2019-02-18T02:36:59.457Z,21.90
2019-02-18T02:42:03.126Z,21.90
2019-02-18T02:47:06.422Z,21.90
2019-02-18T02:52:09.714Z,21.90
2019-02-18T02:57:13.123Z,21.90
2019-02-18T03:02:18.183Z,21.90
2019-02-18T03:07:21.593Z,21.90
2019-02-18T03:12:25.776Z,21.90
2019-02-18T03:17:29.313Z,21.90
2019-02-18T03:22:32.613Z,21.90
2019-02-18T03:27:37.966Z,21.90
2019-02-18T03:32:41.643Z,21.90
2019-02-18T03:37:45.054Z,21.90
2019-02-18T03:42:48.536Z,21.90
2019-02-18T03:47:53.181Z,21.80
2019-02-18T03:52:57.546Z,21.90
2019-02-18T03:58:01.171Z,21.90
2019-02-18T04:03:05.645Z,21.80
2019-02-18T04:08:09.079Z,21.80
2019-02-18T04:13:12.695Z,21.80
2019-02-18T04:18:16.846Z,21.80
2019-02-18T04:23:20.216Z,21.80
2019-02-18T04:28:23.518Z,21.80
2019-02-18T04:33:26.971Z,21.80
2019-02-18T04:38:30.377Z,21.80
2019-02-18T04:43:33.795Z,21.80
2019-02-18T04:48:37.210Z,21.80
2019-02-18T04:53:40.756Z,21.80
2019-02-18T04:58:44.068Z,21.80
2019-02-18T05:03:49.473Z,21.80
2019-02-18T05:09:04.647Z,21.80
2019-02-18T05:13:59.807Z,21.80
2019-02-18T05:19:03.227Z,21.80
2019-02-18T05:24:06.679Z,21.80
2019-02-18T05:29:10.087Z,21.80
2019-02-18T05:34:14.698Z,21.80
2019-02-18T05:39:18.696Z,21.80
2019-02-18T05:44:23.748Z,21.80
2019-02-18T05:49:27.044Z,21.80
2019-02-18T05:54:31.522Z,21.80
2019-02-18T05:59:35.176Z,21.90
2019-02-18T06:04:39.727Z,22.00
2019-02-18T06:09:43.146Z,22.10
2019-02-18T06:14:47.017Z,22.10
2019-02-18T06:19:50.951Z,22.10
2019-02-18T06:24:54.486Z,22.20
2019-02-18T06:29:57.783Z,22.20
2019-02-18T06:35:03.416Z,22.20
2019-02-18T06:40:08.556Z,22.10
2019-02-18T06:45:30.297Z,22.10
2019-02-18T06:50:34.617Z,22.10
2019-02-18T06:55:37.937Z,22.10
2019-02-18T07:00:58.229Z,22.00
2019-02-18T07:06:03.516Z,22.00
2019-02-18T07:11:11.243Z,22.00
2019-02-18T07:16:14.535Z,22.00
2019-02-18T07:21:18.015Z,22.00
2019-02-18T07:26:21.434Z,22.00
2019-02-18T07:31:24.850Z,22.00
2019-02-18T07:36:28.414Z,22.00
2019-02-18T07:41:32.635Z,22.00
2019-02-18T07:46:36.090Z,22.00
2019-02-18T07:51:41.139Z,22.00
2019-02-18T07:56:45.302Z,22.00
2019-02-18T08:01:48.867Z,22.00
2019-02-18T08:06:53.039Z,22.00
2019-02-18T08:11:56.536Z,22.00
2019-02-18T08:16:59.956Z,22.00
2019-02-18T08:22:03.609Z,22.00
2019-02-18T08:27:06.959Z,22.00
2019-02-18T08:32:10.941Z,22.00
2019-02-18T08:37:16.179Z,22.00
2019-02-18T08:42:21.102Z,22.10
2019-02-18T08:47:24.403Z,22.10
2019-02-18T08:52:27.844Z,22.10
2019-02-18T08:57:32.545Z,22.10
2019-02-18T09:02:35.948Z,22.10
2019-02-18T09:07:41.050Z,22.20
2019-02-18T09:12:44.346Z,22.20
2019-02-18T09:17:49.334Z,22.20
2019-02-18T09:23:11.038Z,22.20
2019-02-18T09:28:14.525Z,22.20
2019-02-18T09:33:17.989Z,22.20
2019-02-18T09:38:25.218Z,22.20
2019-02-18T09:43:27.468Z,22.30
2019-02-18T09:48:31.001Z,22.30
2019-02-18T09:53:35.702Z,22.40
2019-02-18T09:58:39.194Z,22.50
2019-02-18T10:03:42.606Z,22.50
2019-02-18T10:08:45.893Z,22.60
2019-02-18T10:13:49.309Z,22.60
2019-02-18T10:18:53.571Z,22.60
2019-02-18T10:23:57.258Z,22.60
2019-02-18T10:29:02.502Z,22.70
2019-02-18T10:34:05.718Z,22.70
2019-02-18T10:39:09.230Z,22.80
2019-02-18T10:44:12.746Z,22.80
2019-02-18T10:49:19.691Z,22.90
2019-02-18T10:54:21.377Z,22.90
2019-02-18T10:59:24.830Z,23.00
2019-02-18T11:04:28.207Z,23.10
2019-02-18T11:09:31.697Z,23.20
2019-02-18T11:14:34.965Z,23.40
2019-02-18T11:19:38.386Z,23.60
2019-02-18T11:24:41.898Z,23.80
2019-02-18T11:29:45.317Z,23.90
2019-02-18T11:34:48.686Z,24.10
2019-02-18T11:39:52.066Z,24.20
2019-02-18T11:44:55.807Z,24.30
2019-02-18T11:49:59.697Z,24.40
2019-02-18T11:55:04.034Z,24.40
2019-02-18T12:00:10.500Z,24.40
2019-02-18T12:05:15.567Z,24.50
2019-02-18T12:10:19.189Z,24.60
2019-02-18T12:15:23.613Z,24.60
2019-02-18T12:20:27.746Z,24.60
2019-02-18T12:25:31.918Z,24.70
2019-02-18T12:30:35.393Z,24.70
2019-02-18T12:35:38.757Z,24.90
2019-02-18T12:40:42.058Z,25.00
2019-02-18T12:45:45.846Z,25.10
2019-02-18T12:50:50.911Z,25.10
2019-02-18T12:55:54.407Z,24.90
2019-02-18T13:00:58.391Z,24.60
2019-02-18T13:06:02.065Z,24.40
2019-02-18T13:11:06.279Z,24.20
2019-02-18T13:16:09.811Z,24.10
2019-02-18T13:21:13.466Z,23.90
2019-02-18T13:26:18.465Z,23.80
2019-02-18T13:31:21.942Z,23.70
2019-02-18T13:36:25.314Z,23.60
2019-02-18T13:41:28.848Z,23.50
2019-02-18T13:46:32.298Z,23.40
2019-02-18T13:51:35.698Z,23.30
2019-02-18T13:56:39.110Z,23.30
2019-02-18T14:01:42.598Z,23.20
2019-02-18T14:06:45.994Z,23.20
2019-02-18T14:11:50.581Z,23.10
2019-02-18T14:16:55.709Z,23.00
2019-02-18T14:21:59.934Z,22.90
2019-02-18T14:27:03.393Z,22.90
2019-02-18T14:32:07.253Z,22.80
2019-02-18T14:37:10.773Z,22.80
2019-02-18T14:42:14.292Z,22.70
2019-02-18T14:47:20.593Z,22.70
2019-02-18T14:52:24.398Z,22.70
2019-02-18T14:57:27.914Z,22.70
2019-02-18T15:02:31.568Z,22.60
2019-02-18T15:07:34.878Z,22.60
2019-02-18T15:12:38.445Z,22.50
2019-02-18T15:17:41.834Z,22.50
2019-02-18T15:22:45.290Z,22.50
2019-02-18T15:27:48.807Z,22.50
2019-02-18T15:32:52.192Z,22.40
2019-02-18T15:37:57.293Z,22.40
2019-02-18T15:43:00.793Z,22.40
2019-02-18T15:48:05.978Z,22.40
2019-02-18T15:53:09.522Z,22.30
2019-02-18T16:03:21.558Z,22.30
2019-02-18T16:08:26.811Z,22.30
2019-02-18T16:13:30.298Z,22.30
2019-02-18T16:18:34.542Z,22.20
2019-02-18T16:23:38.210Z,22.20
2019-02-18T16:28:41.578Z,22.20
2019-02-18T16:33:45.574Z,22.20
2019-02-18T16:38:48.954Z,22.20
2019-02-18T16:43:52.595Z,22.20
2019-02-18T16:48:56.737Z,22.20
2019-02-18T16:54:02.917Z,22.20
2019-02-18T16:59:06.301Z,22.10
2019-02-18T17:04:09.735Z,22.10
2019-02-18T17:09:13.163Z,22.10
2019-02-18T17:14:17.099Z,22.20
2019-02-18T17:19:21.170Z,22.10
2019-02-18T17:24:24.734Z,22.10
2019-02-18T17:29:28.106Z,22.20
2019-02-18T17:34:32.369Z,22.10
2019-02-18T17:39:36.104Z,22.10
2019-02-18T17:44:40.159Z,22.10
2019-02-18T17:49:43.591Z,22.10
2019-02-18T17:54:47.171Z,22.10
2019-02-18T17:59:51.792Z,22.10
2019-02-18T18:04:55.629Z,22.10
2019-02-18T18:09:59.830Z,22.10
2019-02-18T18:15:04.005Z,22.20
2019-02-18T18:20:13.395Z,22.20
2019-02-18T18:25:16.824Z,22.30
2019-02-18T18:30:21.623Z,22.40
2019-02-18T18:35:25.030Z,22.40
2019-02-18T18:40:29.226Z,22.40
2019-02-18T18:45:32.605Z,22.40
2019-02-18T18:50:35.905Z,22.50
2019-02-18T18:55:39.295Z,22.50
2019-02-18T19:00:42.853Z,22.50
2019-02-18T19:05:46.121Z,22.50
2019-02-18T19:10:49.487Z,22.50
2019-02-18T19:15:53.266Z,22.40
2019-02-18T19:20:56.568Z,22.40
2019-02-18T19:25:59.866Z,22.40
2019-02-18T19:31:03.537Z,22.40
2019-02-18T19:36:06.925Z,22.40
2019-02-18T19:41:10.424Z,22.40
2019-02-18T19:46:15.365Z,22.40
2019-02-18T19:51:19.409Z,22.40
2019-02-18T19:56:22.933Z,22.30
2019-02-18T20:01:26.248Z,22.30
2019-02-18T20:06:29.614Z,22.30
2019-02-18T20:11:33.148Z,22.30
2019-02-18T20:16:37.339Z,22.20
2019-02-18T20:21:40.854Z,22.20
2019-02-18T20:26:44.596Z,22.20
2019-02-18T20:31:49.549Z,22.20
2019-02-18T20:36:53.595Z,22.20
2019-02-18T20:41:57.032Z,22.20
2019-02-18T20:47:00.697Z,22.20
2019-02-18T20:52:04.378Z,22.30
2019-02-18T20:57:07.878Z,22.30
2019-02-18T21:02:11.170Z,22.30
2019-02-18T21:07:16.604Z,22.30
2019-02-18T21:12:20.567Z,22.30
2019-02-18T21:17:24.941Z,22.30
2019-02-18T21:22:28.599Z,22.20
2019-02-18T21:27:31.978Z,22.20
2019-02-18T21:32:35.828Z,22.20
2019-02-18T21:37:39.333Z,22.20
2019-02-18T21:42:42.700Z,22.20
2019-02-18T21:47:47.487Z,22.20
2019-02-18T21:52:50.786Z,22.20
2019-02-18T21:57:54.209Z,22.20
2019-02-18T22:02:57.690Z,22.20
2019-02-18T22:08:01.212Z,22.20
2019-02-18T22:13:05.565Z,22.20
2019-02-18T22:18:08.899Z,22.20
2019-02-18T22:23:14.150Z,22.20
2019-02-18T22:28:17.830Z,22.10
2019-02-18T22:33:21.243Z,22.10
2019-02-18T22:38:25.460Z,22.20
2019-02-18T22:43:29.177Z,22.20
2019-02-18T22:48:34.251Z,22.10
2019-02-18T22:53:37.665Z,22.10
2019-02-18T22:58:41.177Z,22.10
2019-02-18T23:03:45.152Z,22.10
2019-02-18T23:08:48.666Z,22.10
2019-02-18T23:13:52.037Z,22.00
2019-02-18T23:18:57.848Z,22.00
2019-02-18T23:24:02.273Z,22.00
2019-02-18T23:29:05.645Z,21.90
2019-02-18T23:34:11.162Z,21.90
2019-02-18T23:39:15.565Z,21.90
2019-02-18T23:44:18.987Z,21.90
2019-02-18T23:49:22.486Z,21.90
2019-02-18T23:54:26.002Z,21.90
2019-02-18T23:59:29.418Z,21.80
